罗盘
风向 的 风向 240°
风: 3 kt, 1 beaufort

添加一条跑道以查看侧风和逆风信息。

添置 跑道
0 1.000 2.000 3.000 4.000 5.000
没有云
METAR CYUL 300900Z 24003KT 15SM SKC 07/04 A3039 RMK SLP293

METAR St-Michel-de-Napierville Airport - CMN3

St-Michel-de-Napierville Airport是St-Michel-de-Napierville,加拿大中的小机场。 视场标高为206 ft。 该领域的国际民航组织标志是CMN3.

这份报告是针对2022年9月30日 05:00, 当地时间在蒙特利尔皮埃尔·埃利奥特·特鲁多国际机场进行的。

机场观察

风向为240°,速度为3 kt。

可见度为15 mi。

有没有云。 没有观察到天花板。

温度为7 °C,阵风为5 °C。 露点为4 °C,相对湿度为81%。 海平面上的气压为30,39 inHg (QNH)。

白天

今天,太阳从06:51升起,在18:36降落。 这适用于St-Michel-de-Napierville Airport,世界夏令时可能有所不同。 当地时间与世界标准时间之间的时差为-4 小时。 夏令时目前正在进行中。

公司介绍

我们没有关于这个机场的公司信息。

体会

到Vliegles.nl去找飞行课程,跳伞和其他飞行体验。 浏览页面,了解St-Michel-de-Napierville Airport附近所有可用的活动。 你也可以使用搜索功能来寻找你所在地附近的特定飞行课程、跳伞或其他飞行体验。

乌云

- SKC 没有云

温度 & 天气

温度 7 °C
露点 4 °C
相对湿度 81%
风寒 5 °C
Kp-index 1 (0-9)

评论

SLP293海平面压力为30,40 inHg (30,40 inHg)

白天

日出
06:52 (1h 33m)
中午
12:44
日落
18:37

小工具

你想在你的网站上有一个关于St-Michel-de-Napierville Airport的当前航空天气(METAR)的小部件吗?

</> 显示HTML代码

我们和第三方通过cookies跟踪您在我们网站上的上网行为。如果您继续,我们认为您同意我们的cookie政策。 了解更多